Weather at Delaware County Johnson Field

Public forecast

Using degrees Fahrenheit for public forecast. Weather courtesy of forecast.io.

Current aviation weather report (METAR) for Delaware County Johnson Field

Retrieved 2021/01/22 05:53 UTC (8 minutes ago):

KMIE 220553Z AUTO 29015G24KT 10SM CLR 01/M04 A2983 RMK AO2 PK WND 33027/0535 SLP102 T00111044 10061 20011 51010

Closest aviation forecast (TAF) to Delaware County Johnson Field

Forecast is more than 12 hours old.

Closest forecast is Grissom Air Reserve Base, 42.3 nm (78.3 km) NW. Retrieved 2021/01/20 13:15 UTC (2 days ago):

TAF KGUS 201300Z 2013/2119 27009G18KT 9999 SCT015 BKN025 QNH3019INS BECMG 2019/2020 22015G25KT 9999 SKC 520009 QNH3000INS BECMG 2106/2107 24012KT 9999 BKN010 QNH2980INS BECMG 2112/2113 25010G20KT 9999 SCT010 BKN180 QNH2977INS TX00/2119Z TNM05/2013Z